sensor_id;sensor_type;location;lat;lon;timestamp;temperature;humidity
45012;DHT22;63444;48.148;11.542;2022-12-13T00:01:44;-3.60;99.90
45012;DHT22;63444;48.148;11.542;2022-12-13T00:04:11;-3.70;99.90
45012;DHT22;63444;48.148;11.542;2022-12-13T00:06:37;-3.70;99.90
45012;DHT22;63444;48.148;11.542;2022-12-13T00:09:04;-3.80;99.90
45012;DHT22;63444;48.148;11.542;2022-12-13T00:11:30;-3.80;99.90
45012;DHT22;63444;48.148;11.542;2022-12-13T00:13:55;-3.90;99.90
45012;DHT22;63444;48.148;11.542;2022-12-13T00:16:23;-3.90;99.90
45012;DHT22;63444;48.148;11.542;2022-12-13T00:18:51;-3.90;99.90
45012;DHT22;63444;48.148;11.542;2022-12-13T00:21:19;-4.00;99.90
45012;DHT22;63444;48.148;11.542;2022-12-13T00:23:47;-4.00;99.90
45012;DHT22;63444;48.148;11.542;2022-12-13T00:26:20;-4.00;99.90
45012;DHT22;63444;48.148;11.542;2022-12-13T00:28:47;-4.10;99.90
45012;DHT22;63444;48.148;11.542;2022-12-13T00:31:14;-4.10;99.90
45012;DHT22;63444;48.148;11.542;2022-12-13T00:33:40;-4.10;99.90
45012;DHT22;63444;48.148;11.542;2022-12-13T00:36:06;-4.10;99.90
45012;DHT22;63444;48.148;11.542;2022-12-13T00:38:33;-4.10;99.90
45012;DHT22;63444;48.148;11.542;2022-12-13T00:40:59;-4.10;99.90
45012;DHT22;63444;48.148;11.542;2022-12-13T00:43:24;-4.10;99.90
45012;DHT22;63444;48.148;11.542;2022-12-13T00:45:50;-4.10;99.90
45012;DHT22;63444;48.148;11.542;2022-12-13T00:48:15;-4.20;99.90
45012;DHT22;63444;48.148;11.542;2022-12-13T00:50:41;-4.30;99.90
45012;DHT22;63444;48.148;11.542;2022-12-13T00:53:06;-4.30;99.90
45012;DHT22;63444;48.148;11.542;2022-12-13T00:55:32;-4.30;99.90
45012;DHT22;63444;48.148;11.542;2022-12-13T00:57:58;-4.40;99.90
45012;DHT22;63444;48.148;11.542;2022-12-13T01:00:24;-4.40;99.90
45012;DHT22;63444;48.148;11.542;2022-12-13T01:02:52;-4.50;99.90
45012;DHT22;63444;48.148;11.542;2022-12-13T01:05:18;-4.60;99.90
45012;DHT22;63444;48.148;11.542;2022-12-13T01:07:43;-4.60;99.90
45012;DHT22;63444;48.148;11.542;2022-12-13T01:10:11;-4.70;99.90
45012;DHT22;63444;48.148;11.542;2022-12-13T01:12:37;-4.70;99.90
45012;DHT22;63444;48.148;11.542;2022-12-13T01:15:05;-4.70;99.90
45012;DHT22;63444;48.148;11.542;2022-12-13T01:17:33;-4.80;99.90
45012;DHT22;63444;48.148;11.542;2022-12-13T01:20:01;-4.80;99.90
45012;DHT22;63444;48.148;11.542;2022-12-13T01:22:26;-4.80;99.90
45012;DHT22;63444;48.148;11.542;2022-12-13T01:24:52;-4.90;99.90
45012;DHT22;63444;48.148;11.542;2022-12-13T01:27:17;-5.00;99.90
45012;DHT22;63444;48.148;11.542;2022-12-13T01:29:43;-5.00;99.90
45012;DHT22;63444;48.148;11.542;2022-12-13T01:32:08;-5.00;99.90
45012;DHT22;63444;48.148;11.542;2022-12-13T01:34:34;-5.00;99.90
45012;DHT22;63444;48.148;11.542;2022-12-13T01:37:00;-5.00;99.90
45012;DHT22;63444;48.148;11.542;2022-12-13T01:39:26;-5.00;99.90
45012;DHT22;63444;48.148;11.542;2022-12-13T01:41:53;-4.90;99.90
45012;DHT22;63444;48.148;11.542;2022-12-13T01:47:41;-4.90;99.90
45012;DHT22;63444;48.148;11.542;2022-12-13T01:50:18;-4.90;99.90
45012;DHT22;63444;48.148;11.542;2022-12-13T01:52:46;-4.90;99.90
45012;DHT22;63444;48.148;11.542;2022-12-13T01:55:12;-4.90;99.90
45012;DHT22;63444;48.148;11.542;2022-12-13T01:57:41;-4.90;99.90
45012;DHT22;63444;48.148;11.542;2022-12-13T02:00:09;-4.90;99.90
45012;DHT22;63444;48.148;11.542;2022-12-13T02:02:36;-4.90;99.90
45012;DHT22;63444;48.148;11.542;2022-12-13T02:05:16;-4.90;99.90
45012;DHT22;63444;48.148;11.542;2022-12-13T02:07:46;-4.90;99.90
45012;DHT22;63444;48.148;11.542;2022-12-13T02:10:12;-4.90;99.90
45012;DHT22;63444;48.148;11.542;2022-12-13T02:12:39;-5.00;99.90
45012;DHT22;63444;48.148;11.542;2022-12-13T02:15:10;-5.00;99.90
45012;DHT22;63444;48.148;11.542;2022-12-13T02:35:11;-5.10;99.90
45012;DHT22;63444;48.148;11.542;2022-12-13T02:38:04;-5.10;99.90
45012;DHT22;63444;48.148;11.542;2022-12-13T02:43:37;-5.10;99.90
45012;DHT22;63444;48.148;11.542;2022-12-13T02:46:05;-5.10;99.90
45012;DHT22;63444;48.148;11.542;2022-12-13T02:48:36;-5.00;99.90
45012;DHT22;63444;48.148;11.542;2022-12-13T02:51:04;-5.00;99.90
45012;DHT22;63444;48.148;11.542;2022-12-13T02:53:32;-5.00;99.90
45012;DHT22;63444;48.148;11.542;2022-12-13T02:55:57;-5.00;99.90
45012;DHT22;63444;48.148;11.542;2022-12-13T02:58:28;-5.00;99.90
45012;DHT22;63444;48.148;11.542;2022-12-13T03:04:01;-5.00;99.90
45012;DHT22;63444;48.148;11.542;2022-12-13T03:06:54;-5.00;99.90
45012;DHT22;63444;48.148;11.542;2022-12-13T03:12:17;-5.00;99.90
45012;DHT22;63444;48.148;11.542;2022-12-13T03:18:06;-5.00;99.90
45012;DHT22;63444;48.148;11.542;2022-12-13T03:20:43;-5.10;99.90
45012;DHT22;63444;48.148;11.542;2022-12-13T03:23:10;-5.20;99.90
45012;DHT22;63444;48.148;11.542;2022-12-13T03:25:36;-5.20;99.90
45012;DHT22;63444;48.148;11.542;2022-12-13T03:28:02;-5.20;99.90
45012;DHT22;63444;48.148;11.542;2022-12-13T03:30:27;-5.20;99.90
45012;DHT22;63444;48.148;11.542;2022-12-13T03:32:53;-5.20;99.90
45012;DHT22;63444;48.148;11.542;2022-12-13T03:35:18;-5.20;99.90
45012;DHT22;63444;48.148;11.542;2022-12-13T03:37:44;-5.20;99.90
45012;DHT22;63444;48.148;11.542;2022-12-13T03:40:10;-5.20;99.90
45012;DHT22;63444;48.148;11.542;2022-12-13T03:42:35;-5.20;99.90
45012;DHT22;63444;48.148;11.542;2022-12-13T03:45:01;-5.20;99.90
45012;DHT22;63444;48.148;11.542;2022-12-13T03:47:27;-5.30;99.90
45012;DHT22;63444;48.148;11.542;2022-12-13T03:49:52;-5.30;99.90
45012;DHT22;63444;48.148;11.542;2022-12-13T03:52:20;-5.30;99.90
45012;DHT22;63444;48.148;11.542;2022-12-13T03:54:45;-5.30;99.90
45012;DHT22;63444;48.148;11.542;2022-12-13T03:57:11;-5.30;99.90
45012;DHT22;63444;48.148;11.542;2022-12-13T03:59:40;-5.30;99.90
45012;DHT22;63444;48.148;11.542;2022-12-13T04:02:05;-5.40;99.90
45012;DHT22;63444;48.148;11.542;2022-12-13T04:04:31;-5.50;99.90
45012;DHT22;63444;48.148;11.542;2022-12-13T04:06:56;-5.60;99.90
45012;DHT22;63444;48.148;11.542;2022-12-13T04:09:22;-5.60;99.90
45012;DHT22;63444;48.148;11.542;2022-12-13T04:11:48;-5.60;99.90
45012;DHT22;63444;48.148;11.542;2022-12-13T04:14:33;-5.60;99.90
45012;DHT22;63444;48.148;11.542;2022-12-13T04:17:00;-5.50;99.90
45012;DHT22;63444;48.148;11.542;2022-12-13T04:19:25;-5.50;99.90
45012;DHT22;63444;48.148;11.542;2022-12-13T04:21:51;-5.50;99.90
45012;DHT22;63444;48.148;11.542;2022-12-13T04:24:23;-5.40;99.90
45012;DHT22;63444;48.148;11.542;2022-12-13T04:26:49;-5.50;99.90
45012;DHT22;63444;48.148;11.542;2022-12-13T04:29:15;-5.40;99.90
45012;DHT22;63444;48.148;11.542;2022-12-13T04:31:41;-5.40;99.90
45012;DHT22;63444;48.148;11.542;2022-12-13T04:34:07;-5.40;99.90
45012;DHT22;63444;48.148;11.542;2022-12-13T04:36:32;-5.40;99.90
45012;DHT22;63444;48.148;11.542;2022-12-13T04:39:03;-5.40;99.90
45012;DHT22;63444;48.148;11.542;2022-12-13T04:41:29;-5.40;99.90
45012;DHT22;63444;48.148;11.542;2022-12-13T04:43:59;-5.40;99.90
45012;DHT22;63444;48.148;11.542;2022-12-13T04:46:24;-5.40;99.90
45012;DHT22;63444;48.148;11.542;2022-12-13T04:48:51;-5.40;99.90
45012;DHT22;63444;48.148;11.542;2022-12-13T04:51:18;-5.40;99.90
45012;DHT22;63444;48.148;11.542;2022-12-13T04:53:43;-5.40;99.90
45012;DHT22;63444;48.148;11.542;2022-12-13T04:56:09;-5.40;99.90
45012;DHT22;63444;48.148;11.542;2022-12-13T04:58:35;-5.40;99.90
45012;DHT22;63444;48.148;11.542;2022-12-13T05:01:00;-5.40;99.90
45012;DHT22;63444;48.148;11.542;2022-12-13T05:03:27;-5.40;99.90
45012;DHT22;63444;48.148;11.542;2022-12-13T05:05:53;-5.40;99.90
45012;DHT22;63444;48.148;11.542;2022-12-13T05:08:19;-5.40;99.90
45012;DHT22;63444;48.148;11.542;2022-12-13T05:10:44;-5.40;99.90
45012;DHT22;63444;48.148;11.542;2022-12-13T05:13:10;-5.40;99.90
45012;DHT22;63444;48.148;11.542;2022-12-13T05:15:35;-5.40;99.90
45012;DHT22;63444;48.148;11.542;2022-12-13T05:18:02;-5.50;99.90
45012;DHT22;63444;48.148;11.542;2022-12-13T05:20:28;-5.50;99.90
45012;DHT22;63444;48.148;11.542;2022-12-13T05:22:56;-5.50;99.90
45012;DHT22;63444;48.148;11.542;2022-12-13T05:25:25;-5.60;99.90
45012;DHT22;63444;48.148;11.542;2022-12-13T05:27:52;-5.60;99.90
45012;DHT22;63444;48.148;11.542;2022-12-13T05:30:18;-5.50;99.90
45012;DHT22;63444;48.148;11.542;2022-12-13T05:32:44;-5.60;99.90
45012;DHT22;63444;48.148;11.542;2022-12-13T05:35:14;-5.50;99.90
45012;DHT22;63444;48.148;11.542;2022-12-13T05:37:40;-5.50;99.90
45012;DHT22;63444;48.148;11.542;2022-12-13T05:40:06;-5.50;99.90
45012;DHT22;63444;48.148;11.542;2022-12-13T05:42:32;-5.50;99.90
45012;DHT22;63444;48.148;11.542;2022-12-13T05:44:57;-5.50;99.90
45012;DHT22;63444;48.148;11.542;2022-12-13T05:47:23;-5.50;99.90
45012;DHT22;63444;48.148;11.542;2022-12-13T05:49:50;-5.50;99.90
45012;DHT22;63444;48.148;11.542;2022-12-13T05:52:20;-5.60;99.90
45012;DHT22;63444;48.148;11.542;2022-12-13T05:54:46;-5.60;99.90
45012;DHT22;63444;48.148;11.542;2022-12-13T05:57:12;-5.60;99.90
45012;DHT22;63444;48.148;11.542;2022-12-13T05:59:38;-5.60;99.90
45012;DHT22;63444;48.148;11.542;2022-12-13T06:02:04;-5.60;99.90
45012;DHT22;63444;48.148;11.542;2022-12-13T06:04:30;-5.60;99.90
45012;DHT22;63444;48.148;11.542;2022-12-13T06:06:55;-5.70;99.90
45012;DHT22;63444;48.148;11.542;2022-12-13T06:09:21;-5.70;99.90
45012;DHT22;63444;48.148;11.542;2022-12-13T06:11:48;-5.60;99.90
45012;DHT22;63444;48.148;11.542;2022-12-13T06:14:14;-5.60;99.90
45012;DHT22;63444;48.148;11.542;2022-12-13T06:16:40;-5.60;99.90
45012;DHT22;63444;48.148;11.542;2022-12-13T06:19:05;-5.60;99.90
45012;DHT22;63444;48.148;11.542;2022-12-13T06:21:32;-5.60;99.90
45012;DHT22;63444;48.148;11.542;2022-12-13T06:23:58;-5.60;99.90
45012;DHT22;63444;48.148;11.542;2022-12-13T06:26:24;-5.60;99.90
45012;DHT22;63444;48.148;11.542;2022-12-13T06:28:51;-5.60;99.90
45012;DHT22;63444;48.148;11.542;2022-12-13T06:31:16;-5.60;99.90
45012;DHT22;63444;48.148;11.542;2022-12-13T06:33:42;-5.60;99.90
45012;DHT22;63444;48.148;11.542;2022-12-13T06:36:08;-5.60;99.90
45012;DHT22;63444;48.148;11.542;2022-12-13T06:38:34;-5.60;99.90
45012;DHT22;63444;48.148;11.542;2022-12-13T06:41:15;-5.60;99.90
45012;DHT22;63444;48.148;11.542;2022-12-13T06:43:45;-5.60;99.90
45012;DHT22;63444;48.148;11.542;2022-12-13T06:46:11;-5.60;99.90
45012;DHT22;63444;48.148;11.542;2022-12-13T06:48:37;-5.60;99.90
45012;DHT22;63444;48.148;11.542;2022-12-13T06:51:07;-5.60;99.90
45012;DHT22;63444;48.148;11.542;2022-12-13T06:53:34;-5.70;99.90
45012;DHT22;63444;48.148;11.542;2022-12-13T06:56:11;-5.70;99.90
45012;DHT22;63444;48.148;11.542;2022-12-13T06:58:38;-5.70;99.90
45012;DHT22;63444;48.148;11.542;2022-12-13T07:03:32;-5.70;99.90
45012;DHT22;63444;48.148;11.542;2022-12-13T07:06:06;-5.70;99.90
45012;DHT22;63444;48.148;11.542;2022-12-13T07:08:33;-5.70;99.90
45012;DHT22;63444;48.148;11.542;2022-12-13T07:11:00;-5.70;99.90
45012;DHT22;63444;48.148;11.542;2022-12-13T07:13:26;-5.80;99.90
45012;DHT22;63444;48.148;11.542;2022-12-13T07:15:52;-5.80;99.90
45012;DHT22;63444;48.148;11.542;2022-12-13T07:18:17;-5.70;99.90
45012;DHT22;63444;48.148;11.542;2022-12-13T07:20:44;-5.80;99.90
45012;DHT22;63444;48.148;11.542;2022-12-13T07:23:10;-5.70;99.90
45012;DHT22;63444;48.148;11.542;2022-12-13T07:25:36;-5.80;99.90
45012;DHT22;63444;48.148;11.542;2022-12-13T07:28:05;-5.80;99.90
45012;DHT22;63444;48.148;11.542;2022-12-13T07:30:38;-5.80;99.90
45012;DHT22;63444;48.148;11.542;2022-12-13T07:33:04;-5.80;99.90
45012;DHT22;63444;48.148;11.542;2022-12-13T07:35:31;-5.80;99.90
45012;DHT22;63444;48.148;11.542;2022-12-13T07:37:57;-5.90;99.90
45012;DHT22;63444;48.148;11.542;2022-12-13T07:40:23;-5.80;99.90
45012;DHT22;63444;48.148;11.542;2022-12-13T07:42:54;-5.80;99.90
45012;DHT22;63444;48.148;11.542;2022-12-13T07:45:20;-5.90;99.90
45012;DHT22;63444;48.148;11.542;2022-12-13T07:47:46;-5.90;99.90
45012;DHT22;63444;48.148;11.542;2022-12-13T07:50:12;-5.90;99.90
45012;DHT22;63444;48.148;11.542;2022-12-13T07:52:38;-5.90;99.90
45012;DHT22;63444;48.148;11.542;2022-12-13T07:55:05;-5.90;99.90
45012;DHT22;63444;48.148;11.542;2022-12-13T07:57:33;-5.90;99.90
45012;DHT22;63444;48.148;11.542;2022-12-13T08:00:02;-5.90;99.90
45012;DHT22;63444;48.148;11.542;2022-12-13T08:02:28;-5.90;99.90
45012;DHT22;63444;48.148;11.542;2022-12-13T08:04:54;-5.90;99.90
45012;DHT22;63444;48.148;11.542;2022-12-13T08:07:19;-5.80;99.90
45012;DHT22;63444;48.148;11.542;2022-12-13T08:09:45;-5.80;99.90
45012;DHT22;63444;48.148;11.542;2022-12-13T08:12:11;-5.80;99.90
45012;DHT22;63444;48.148;11.542;2022-12-13T08:14:36;-5.80;99.90
45012;DHT22;63444;48.148;11.542;2022-12-13T08:17:02;-5.80;99.90
45012;DHT22;63444;48.148;11.542;2022-12-13T08:19:27;-5.80;99.90
45012;DHT22;63444;48.148;11.542;2022-12-13T08:21:53;-5.80;99.90
45012;DHT22;63444;48.148;11.542;2022-12-13T08:24:24;-5.70;99.90
45012;DHT22;63444;48.148;11.542;2022-12-13T08:26:50;-5.80;99.90
45012;DHT22;63444;48.148;11.542;2022-12-13T08:29:16;-5.70;99.90
45012;DHT22;63444;48.148;11.542;2022-12-13T08:31:42;-5.70;99.90
45012;DHT22;63444;48.148;11.542;2022-12-13T08:34:07;-5.70;99.90
45012;DHT22;63444;48.148;11.542;2022-12-13T08:36:33;-5.70;99.90
45012;DHT22;63444;48.148;11.542;2022-12-13T08:38:59;-5.70;99.90
45012;DHT22;63444;48.148;11.542;2022-12-13T08:41:28;-5.60;99.90
45012;DHT22;63444;48.148;11.542;2022-12-13T08:43:53;-5.60;99.90
45012;DHT22;63444;48.148;11.542;2022-12-13T08:46:19;-5.60;99.90
45012;DHT22;63444;48.148;11.542;2022-12-13T08:48:45;-5.50;99.90
45012;DHT22;63444;48.148;11.542;2022-12-13T08:51:12;-5.50;99.90
45012;DHT22;63444;48.148;11.542;2022-12-13T08:53:42;-5.40;99.90
45012;DHT22;63444;48.148;11.542;2022-12-13T08:56:10;-5.30;99.90
45012;DHT22;63444;48.148;11.542;2022-12-13T08:58:37;-5.30;99.90
45012;DHT22;63444;48.148;11.542;2022-12-13T09:01:07;-5.20;99.90
45012;DHT22;63444;48.148;11.542;2022-12-13T09:03:34;-5.20;99.90
45012;DHT22;63444;48.148;11.542;2022-12-13T09:08:32;-5.10;99.90
45012;DHT22;63444;48.148;11.542;2022-12-13T09:10:59;-5.00;99.90
45012;DHT22;63444;48.148;11.542;2022-12-13T09:13:24;-4.90;99.90
45012;DHT22;63444;48.148;11.542;2022-12-13T09:15:50;-5.00;99.90
45012;DHT22;63444;48.148;11.542;2022-12-13T09:18:16;-4.90;99.90
45012;DHT22;63444;48.148;11.542;2022-12-13T09:20:41;-4.80;99.90
45012;DHT22;63444;48.148;11.542;2022-12-13T09:23:09;-4.80;99.90
45012;DHT22;63444;48.148;11.542;2022-12-13T09:25:36;-4.80;99.90
45012;DHT22;63444;48.148;11.542;2022-12-13T09:28:05;-4.70;99.90
45012;DHT22;63444;48.148;11.542;2022-12-13T09:30:32;-4.70;99.90
45012;DHT22;63444;48.148;11.542;2022-12-13T09:32:57;-4.70;99.90
45012;DHT22;63444;48.148;11.542;2022-12-13T09:35:23;-4.60;99.90
45012;DHT22;63444;48.148;11.542;2022-12-13T09:37:49;-4.50;99.90
45012;DHT22;63444;48.148;11.542;2022-12-13T09:40:21;-4.50;99.90
45012;DHT22;63444;48.148;11.542;2022-12-13T09:42:54;-4.40;99.90
45012;DHT22;63444;48.148;11.542;2022-12-13T09:45:21;-4.30;99.90
45012;DHT22;63444;48.148;11.542;2022-12-13T09:47:47;-4.30;99.90
45012;DHT22;63444;48.148;11.542;2022-12-13T09:50:19;-4.30;99.90
45012;DHT22;63444;48.148;11.542;2022-12-13T09:52:46;-4.30;99.90
45012;DHT22;63444;48.148;11.542;2022-12-13T09:55:20;-4.30;99.90
45012;DHT22;63444;48.148;11.542;2022-12-13T09:57:49;-4.30;99.90
45012;DHT22;63444;48.148;11.542;2022-12-13T10:00:18;-4.20;99.90
45012;DHT22;63444;48.148;11.542;2022-12-13T10:02:50;-4.20;99.90
45012;DHT22;63444;48.148;11.542;2022-12-13T10:05:37;-4.10;99.90
45012;DHT22;63444;48.148;11.542;2022-12-13T10:08:14;-4.10;99.90
45012;DHT22;63444;48.148;11.542;2022-12-13T10:10:41;-4.00;99.90
45012;DHT22;63444;48.148;11.542;2022-12-13T10:16:05;-3.60;99.90
45012;DHT22;63444;48.148;11.542;2022-12-13T10:18:34;-3.50;99.90
45012;DHT22;63444;48.148;11.542;2022-12-13T10:21:03;-3.30;99.90
45012;DHT22;63444;48.148;11.542;2022-12-13T10:23:30;-3.20;99.90
45012;DHT22;63444;48.148;11.542;2022-12-13T10:25:56;-2.90;99.90
45012;DHT22;63444;48.148;11.542;2022-12-13T10:28:31;-2.80;99.90
45012;DHT22;63444;48.148;11.542;2022-12-13T10:30:58;-2.70;99.90
45012;DHT22;63444;48.148;11.542;2022-12-13T10:33:30;-2.40;99.90
45012;DHT22;63444;48.148;11.542;2022-12-13T10:38:37;-1.90;99.90
45012;DHT22;63444;48.148;11.542;2022-12-13T10:41:44;-1.60;99.80
45012;DHT22;63444;48.148;11.542;2022-12-13T10:44:18;-1.50;99.30
45012;DHT22;63444;48.148;11.542;2022-12-13T10:46:49;-1.30;99.10
45012;DHT22;63444;48.148;11.542;2022-12-13T10:49:20;-1.10;98.90
45012;DHT22;63444;48.148;11.542;2022-12-13T10:51:48;-0.90;98.50
45012;DHT22;63444;48.148;11.542;2022-12-13T10:54:40;-0.70;98.10
45012;DHT22;63444;48.148;11.542;2022-12-13T10:57:10;-0.60;97.60
45012;DHT22;63444;48.148;11.542;2022-12-13T10:59:37;-0.60;96.80
45012;DHT22;63444;48.148;11.542;2022-12-13T11:02:36;-0.60;96.80
45012;DHT22;63444;48.148;11.542;2022-12-13T11:05:25;-0.40;96.60
45012;DHT22;63444;48.148;11.542;2022-12-13T11:07:51;-0.30;96.90
45012;DHT22;63444;48.148;11.542;2022-12-13T11:10:26;-0.10;96.60
45012;DHT22;63444;48.148;11.542;2022-12-13T11:12:59;-0.10;96.30
45012;DHT22;63444;48.148;11.542;2022-12-13T11:15:26;0.10;96.50
45012;DHT22;63444;48.148;11.542;2022-12-13T11:18:10;0.10;95.70
45012;DHT22;63444;48.148;11.542;2022-12-13T11:20:55;0.10;95.70
45012;DHT22;63444;48.148;11.542;2022-12-13T11:23:44;0.10;95.70
45012;DHT22;63444;48.148;11.542;2022-12-13T11:26:15;0.20;95.60
45012;DHT22;63444;48.148;11.542;2022-12-13T11:34:32;0.30;95.30
45012;DHT22;63444;48.148;11.542;2022-12-13T11:37:19;0.30;95.10
45012;DHT22;63444;48.148;11.542;2022-12-13T11:39:52;0.40;95.20
45012;DHT22;63444;48.148;11.542;2022-12-13T11:42:35;0.40;94.90
45012;DHT22;63444;48.148;11.542;2022-12-13T11:50:18;0.30;94.90
45012;DHT22;63444;48.148;11.542;2022-12-13T11:53:09;0.30;94.70
45012;DHT22;63444;48.148;11.542;2022-12-13T11:55:45;0.40;94.90
45012;DHT22;63444;48.148;11.542;2022-12-13T12:00:55;0.30;94.90
45012;DHT22;63444;48.148;11.542;2022-12-13T12:03:33;0.30;94.90
45012;DHT22;63444;48.148;11.542;2022-12-13T12:06:21;0.30;95.00
45012;DHT22;63444;48.148;11.542;2022-12-13T12:08:56;0.30;94.80
45012;DHT22;63444;48.148;11.542;2022-12-13T12:14:40;0.30;95.10
45012;DHT22;63444;48.148;11.542;2022-12-13T12:17:12;0.20;95.10
45012;DHT22;63444;48.148;11.542;2022-12-13T12:19:41;0.00;94.70
45012;DHT22;63444;48.148;11.542;2022-12-13T12:22:35;0.00;95.00
45012;DHT22;63444;48.148;11.542;2022-12-13T12:25:25;0.00;95.10
45012;DHT22;63444;48.148;11.542;2022-12-13T12:41:42;0.40;95.00
45012;DHT22;63444;48.148;11.542;2022-12-13T12:47:32;0.40;94.90
45012;DHT22;63444;48.148;11.542;2022-12-13T12:50:02;0.40;94.80
45012;DHT22;63444;48.148;11.542;2022-12-13T13:00:37;0.40;94.50
45012;DHT22;63444;48.148;11.542;2022-12-13T13:03:20;0.50;94.70
45012;DHT22;63444;48.148;11.542;2022-12-13T13:06:10;0.70;94.60
45012;DHT22;63444;48.148;11.542;2022-12-13T13:09:00;0.90;94.50
45012;DHT22;63444;48.148;11.542;2022-12-13T13:11:29;1.00;94.40
45012;DHT22;63444;48.148;11.542;2022-12-13T13:18:52;1.10;93.50
45012;DHT22;63444;48.148;11.542;2022-12-13T13:26:30;0.70;93.70
45012;DHT22;63444;48.148;11.542;2022-12-13T13:34:41;0.20;94.50
45012;DHT22;63444;48.148;11.542;2022-12-13T13:39:53;0.00;94.60
45012;DHT22;63444;48.148;11.542;2022-12-13T13:53:05;-0.50;95.40
45012;DHT22;63444;48.148;11.542;2022-12-13T13:55:59;-0.60;95.20
45012;DHT22;63444;48.148;11.542;2022-12-13T14:11:19;-1.10;95.90
45012;DHT22;63444;48.148;11.542;2022-12-13T14:19:29;-1.40;96.10
45012;DHT22;63444;48.148;11.542;2022-12-13T14:22:28;-1.40;96.60
45012;DHT22;63444;48.148;11.542;2022-12-13T14:25:10;-1.50;96.50
45012;DHT22;63444;48.148;11.542;2022-12-13T14:27:45;-1.80;96.80
45012;DHT22;63444;48.148;11.542;2022-12-13T14:30:14;-1.70;97.00
45012;DHT22;63444;48.148;11.542;2022-12-13T14:32:40;-1.70;97.10
45012;DHT22;63444;48.148;11.542;2022-12-13T14:35:30;-1.70;97.20
45012;DHT22;63444;48.148;11.542;2022-12-13T14:38:02;-1.80;97.20
45012;DHT22;63444;48.148;11.542;2022-12-13T14:40:32;-1.80;97.40
45012;DHT22;63444;48.148;11.542;2022-12-13T14:42:58;-1.80;97.50
45012;DHT22;63444;48.148;11.542;2022-12-13T14:45:32;-1.80;97.60
45012;DHT22;63444;48.148;11.542;2022-12-13T14:48:02;-1.90;97.60
45012;DHT22;63444;48.148;11.542;2022-12-13T14:50:32;-1.90;97.70
45012;DHT22;63444;48.148;11.542;2022-12-13T14:52:58;-2.00;97.80
45012;DHT22;63444;48.148;11.542;2022-12-13T14:55:33;-2.00;97.90
45012;DHT22;63444;48.148;11.542;2022-12-13T14:58:02;-2.00;98.00
45012;DHT22;63444;48.148;11.542;2022-12-13T15:00:38;-2.10;97.90
45012;DHT22;63444;48.148;11.542;2022-12-13T15:03:04;-2.10;98.20
45012;DHT22;63444;48.148;11.542;2022-12-13T15:05:39;-2.10;98.40
45012;DHT22;63444;48.148;11.542;2022-12-13T15:08:09;-2.10;98.40
45012;DHT22;63444;48.148;11.542;2022-12-13T15:13:01;-2.20;98.60
45012;DHT22;63444;48.148;11.542;2022-12-13T15:15:35;-2.20;98.70
45012;DHT22;63444;48.148;11.542;2022-12-13T15:18:18;-2.30;98.90
45012;DHT22;63444;48.148;11.542;2022-12-13T15:20:45;-2.30;99.00
45012;DHT22;63444;48.148;11.542;2022-12-13T15:23:22;-2.40;99.10
45012;DHT22;63444;48.148;11.542;2022-12-13T15:26:17;-2.40;99.30
45012;DHT22;63444;48.148;11.542;2022-12-13T15:28:46;-2.40;99.40
45012;DHT22;63444;48.148;11.542;2022-12-13T15:31:14;-2.50;99.50
45012;DHT22;63444;48.148;11.542;2022-12-13T15:33:40;-2.50;99.60
45012;DHT22;63444;48.148;11.542;2022-12-13T15:36:18;-2.50;99.70
45012;DHT22;63444;48.148;11.542;2022-12-13T15:41:18;-2.60;99.90
45012;DHT22;63444;48.148;11.542;2022-12-13T15:43:53;-2.70;99.90
45012;DHT22;63444;48.148;11.542;2022-12-13T15:46:31;-2.70;99.90
45012;DHT22;63444;48.148;11.542;2022-12-13T15:48:59;-2.70;99.90
45012;DHT22;63444;48.148;11.542;2022-12-13T15:51:26;-2.70;99.90
45012;DHT22;63444;48.148;11.542;2022-12-13T15:56:57;-2.80;99.90
45012;DHT22;63444;48.148;11.542;2022-12-13T15:59:29;-2.80;99.90
45012;DHT22;63444;48.148;11.542;2022-12-13T16:01:55;-2.80;99.90
45012;DHT22;63444;48.148;11.542;2022-12-13T16:04:23;-2.80;99.90
45012;DHT22;63444;48.148;11.542;2022-12-13T16:06:52;-2.80;99.90
45012;DHT22;63444;48.148;11.542;2022-12-13T16:09:19;-2.80;99.90
45012;DHT22;63444;48.148;11.542;2022-12-13T16:11:57;-2.80;99.90
45012;DHT22;63444;48.148;11.542;2022-12-13T16:16:55;-2.90;99.90
45012;DHT22;63444;48.148;11.542;2022-12-13T16:19:21;-2.90;99.90
45012;DHT22;63444;48.148;11.542;2022-12-13T16:21:48;-2.90;99.90
45012;DHT22;63444;48.148;11.542;2022-12-13T16:24:15;-2.80;99.90
45012;DHT22;63444;48.148;11.542;2022-12-13T16:26:45;-2.90;99.90
45012;DHT22;63444;48.148;11.542;2022-12-13T16:29:13;-3.00;99.90
45012;DHT22;63444;48.148;11.542;2022-12-13T16:31:41;-3.00;99.90
45012;DHT22;63444;48.148;11.542;2022-12-13T16:34:07;-3.00;99.90
45012;DHT22;63444;48.148;11.542;2022-12-13T16:36:33;-3.00;99.90
45012;DHT22;63444;48.148;11.542;2022-12-13T16:38:58;-3.10;99.90
45012;DHT22;63444;48.148;11.542;2022-12-13T16:41:24;-3.00;99.90
45012;DHT22;63444;48.148;11.542;2022-12-13T16:43:59;-3.10;99.90
45012;DHT22;63444;48.148;11.542;2022-12-13T16:46:25;-3.10;99.90
45012;DHT22;63444;48.148;11.542;2022-12-13T16:48:52;-3.10;99.90
45012;DHT22;63444;48.148;11.542;2022-12-13T16:51:18;-3.20;99.90
45012;DHT22;63444;48.148;11.542;2022-12-13T16:53:45;-3.20;99.90
45012;DHT22;63444;48.148;11.542;2022-12-13T16:56:11;-3.20;99.90
45012;DHT22;63444;48.148;11.542;2022-12-13T16:58:40;-3.30;99.90
45012;DHT22;63444;48.148;11.542;2022-12-13T17:01:11;-3.30;99.90
45012;DHT22;63444;48.148;11.542;2022-12-13T17:03:37;-3.20;99.90
45012;DHT22;63444;48.148;11.542;2022-12-13T17:06:04;-3.30;99.90
45012;DHT22;63444;48.148;11.542;2022-12-13T17:08:30;-3.30;99.90
45012;DHT22;63444;48.148;11.542;2022-12-13T17:10:56;-3.30;99.90
45012;DHT22;63444;48.148;11.542;2022-12-13T17:13:22;-3.30;99.90
45012;DHT22;63444;48.148;11.542;2022-12-13T17:15:48;-3.40;99.90
45012;DHT22;63444;48.148;11.542;2022-12-13T17:18:13;-3.40;99.90
45012;DHT22;63444;48.148;11.542;2022-12-13T17:20:40;-3.40;99.90
45012;DHT22;63444;48.148;11.542;2022-12-13T17:23:06;-3.40;99.90
45012;DHT22;63444;48.148;11.542;2022-12-13T17:25:35;-3.40;99.90
45012;DHT22;63444;48.148;11.542;2022-12-13T17:28:00;-3.40;99.90
45012;DHT22;63444;48.148;11.542;2022-12-13T17:30:28;-3.50;99.90
45012;DHT22;63444;48.148;11.542;2022-12-13T17:32:57;-3.40;99.90
45012;DHT22;63444;48.148;11.542;2022-12-13T17:35:23;-3.40;99.90
45012;DHT22;63444;48.148;11.542;2022-12-13T17:37:51;-3.40;99.90
45012;DHT22;63444;48.148;11.542;2022-12-13T17:40:17;-3.50;99.90
45012;DHT22;63444;48.148;11.542;2022-12-13T17:42:43;-3.50;99.90
45012;DHT22;63444;48.148;11.542;2022-12-13T17:45:10;-3.50;99.90
45012;DHT22;63444;48.148;11.542;2022-12-13T17:47:35;-3.50;99.90
45012;DHT22;63444;48.148;11.542;2022-12-13T17:50:04;-3.50;99.90
45012;DHT22;63444;48.148;11.542;2022-12-13T17:52:30;-3.50;99.90
45012;DHT22;63444;48.148;11.542;2022-12-13T17:54:56;-3.50;99.90